Time;durP1;ratioP1;P1;durP2;ratioP2;P2;SDS_P1;SDS_P2;PMS_P1;PMS_P2;Temp;Humidity;BMP_temperature;BMP_pressure;BME280_temperature;BME280_humidity;BME280_pressure;Samples;Min_cycle;Max_cycle;Signal;HPM_P1;HPM_P2
2022/08/02 00:01:38;;;;;;;3.63;1.65;;;20.20;99.90;;;;;;5078863;28;20408;-60
2022/08/02 00:04:04;;;;;;;2.90;1.30;;;20.10;99.90;;;;;;5079016;28;20028;-60
2022/08/02 00:06:30;;;;;;;2.38;1.40;;;20.10;99.90;;;;;;5079673;28;20024;-60
2022/08/02 00:08:56;;;;;;;3.67;1.55;;;20.10;99.90;;;;;;5062305;28;20107;-61
2022/08/02 00:11:22;;;;;;;4.05;1.55;;;20.10;99.90;;;;;;5078935;28;20032;-60
2022/08/02 00:13:48;;;;;;;4.53;1.40;;;20.10;99.90;;;;;;5079576;28;20025;-60
2022/08/02 00:16:14;;;;;;;1.85;1.20;;;20.10;99.90;;;;;;5078693;28;20461;-60
2022/08/02 00:18:39;;;;;;;4.45;1.40;;;20.00;99.90;;;;;;5078754;28;20078;-60
2022/08/02 00:21:05;;;;;;;2.45;1.20;;;20.00;99.90;;;;;;5079551;28;20037;-60
2022/08/02 00:23:31;;;;;;;1.55;1.20;;;20.00;99.90;;;;;;5079041;28;20093;-60
2022/08/02 00:25:57;;;;;;;2.25;1.42;;;20.10;99.90;;;;;;5079271;28;20037;-60
2022/08/02 00:28:24;;;;;;;3.80;1.30;;;19.90;99.90;;;;;;5079059;28;20081;-60
2022/08/02 00:30:51;;;;;;;4.45;1.80;;;19.90;99.90;;;;;;5078285;28;20123;-60
2022/08/02 00:33:17;;;;;;;4.05;1.60;;;19.80;99.90;;;;;;5079155;28;20175;-59
2022/08/02 00:35:46;;;;;;;4.65;1.58;;;19.80;99.90;;;;;;5079072;28;20115;-59
2022/08/02 00:38:12;;;;;;;3.53;1.42;;;19.80;99.90;;;;;;5078948;28;20400;-59
2022/08/02 00:40:38;;;;;;;4.70;1.80;;;19.80;99.90;;;;;;5079036;28;20342;-59
2022/08/02 00:43:07;;;;;;;3.08;1.45;;;19.90;99.90;;;;;;5078977;28;20033;-61
2022/08/02 00:45:34;;;;;;;4.78;1.52;;;19.90;99.90;;;;;;5078916;28;20036;-60
2022/08/02 00:48:00;;;;;;;2.35;1.35;;;19.90;99.90;;;;;;5078098;28;20299;-61
2022/08/02 00:50:26;;;;;;;3.67;1.40;;;19.90;99.90;;;;;;5079564;28;20028;-59
2022/08/02 00:52:52;;;;;;;5.95;1.60;;;19.70;99.90;;;;;;5078769;28;20036;-60
2022/08/02 00:55:18;;;;;;;3.65;1.40;;;19.70;99.90;;;;;;5078036;28;20323;-60
2022/08/02 00:57:44;;;;;;;5.57;1.85;;;19.70;99.90;;;;;;5078562;28;20083;-60
2022/08/02 01:00:10;;;;;;;2.90;1.40;;;19.70;99.90;;;;;;5078886;28;20419;-60
2022/08/02 01:02:36;;;;;;;4.80;1.38;;;19.70;99.90;;;;;;5078120;28;20032;-61
2022/08/02 01:05:02;;;;;;;6.68;1.55;;;19.70;99.90;;;;;;5078798;28;20017;-60
2022/08/02 01:07:28;;;;;;;4.82;1.80;;;19.70;99.90;;;;;;5078761;28;20109;-60
2022/08/02 01:09:54;;;;;;;4.10;1.58;;;19.60;99.90;;;;;;5078430;28;20024;-60
2022/08/02 01:12:19;;;;;;;3.88;1.42;;;19.70;99.90;;;;;;5078376;28;20111;-60
2022/08/02 01:14:49;;;;;;;4.40;1.80;;;19.70;99.90;;;;;;5078483;28;20039;-60
2022/08/02 01:17:33;;;;;;;2.17;1.52;;;19.70;99.90;;;;;;5078262;28;20024;-60
2022/08/02 01:20:24;;;;;;;2.63;1.38;;;19.50;99.90;;;;;;5077331;28;20441;-60
2022/08/02 01:23:28;;;;;;;4.50;1.67;;;19.60;99.90;;;;;;5078283;28;20042;-59
2022/08/02 01:26:25;;;;;;;3.83;1.58;;;19.70;99.90;;;;;;5078152;28;20032;-58
2022/08/02 01:29:01;;;;;;;5.53;2.20;;;19.60;99.90;;;;;;5078120;28;20025;-58
2022/08/02 01:31:32;;;;;;;4.63;1.65;;;19.60;99.90;;;;;;5078415;28;20044;-58
2022/08/02 01:34:10;;;;;;;2.58;1.63;;;19.60;99.90;;;;;;5077229;28;20063;-59
2022/08/02 01:36:40;;;;;;;5.25;2.05;;;19.60;99.90;;;;;;5077882;28;20024;-59
2022/08/02 01:39:10;;;;;;;3.55;1.70;;;19.60;99.90;;;;;;5077834;28;20311;-59
2022/08/02 01:41:37;;;;;;;2.90;1.80;;;19.60;99.90;;;;;;5078105;28;20104;-59
2022/08/02 01:44:04;;;;;;;2.40;1.50;;;19.60;99.90;;;;;;5077058;28;20100;-60
2022/08/02 01:46:33;;;;;;;5.45;1.90;;;19.60;99.90;;;;;;5076855;28;20048;-59
2022/08/02 01:49:04;;;;;;;4.20;2.03;;;19.50;99.90;;;;;;5077867;28;20392;-59
2022/08/02 01:54:21;;;;;;;3.13;1.88;;;19.40;99.90;;;;;;5077824;28;20032;-59
2022/08/02 01:56:48;;;;;;;5.13;1.90;;;19.40;99.90;;;;;;5077297;28;20294;-59
2022/08/02 01:59:19;;;;;;;6.35;2.13;;;19.40;99.90;;;;;;5077767;28;20282;-59
2022/08/02 02:01:48;;;;;;;3.65;2.00;;;19.30;99.90;;;;;;5077410;28;20093;-59
2022/08/02 02:04:15;;;;;;;5.88;2.00;;;19.20;99.90;;;;;;5076666;28;20059;-60
2022/08/02 02:06:43;;;;;;;3.13;1.85;;;19.20;99.90;;;;;;5077299;28;20296;-60
2022/08/02 02:09:13;;;;;;;5.40;2.22;;;19.20;99.90;;;;;;5077268;28;20020;-59
2022/08/02 02:11:44;;;;;;;2.75;1.80;;;19.20;99.90;;;;;;5077240;28;20036;-59
2022/08/02 02:14:12;;;;;;;3.90;1.80;;;19.20;99.90;;;;;;5077270;28;20081;-59
2022/08/02 02:16:41;;;;;;;3.20;2.00;;;19.10;99.90;;;;;;5077228;28;20040;-59
2022/08/02 02:19:09;;;;;;;7.35;2.15;;;19.00;99.90;;;;;;5077172;28;20087;-59
2022/08/02 02:21:36;;;;;;;5.82;2.28;;;19.00;99.90;;;;;;5077568;28;20381;-60
2022/08/02 02:24:02;;;;;;;4.60;1.95;;;19.00;99.90;;;;;;5077115;28;20039;-59
2022/08/02 02:26:29;;;;;;;4.85;2.03;;;19.00;99.90;;;;;;5077081;28;20043;-59
2022/08/02 02:28:58;;;;;;;3.90;2.10;;;19.00;99.90;;;;;;5077040;28;20308;-59
2022/08/02 02:31:25;;;;;;;5.65;2.10;;;19.00;99.90;;;;;;5076838;28;20024;-60
2022/08/02 02:34:03;;;;;;;3.33;2.25;;;19.00;99.90;;;;;;5076997;28;20412;-60
2022/08/02 02:36:32;;;;;;;4.60;2.38;;;19.00;99.90;;;;;;5077520;28;20392;-59
2022/08/02 02:39:02;;;;;;;3.75;2.30;;;19.00;99.90;;;;;;5076959;28;20058;-59
2022/08/02 02:41:28;;;;;;;5.25;2.30;;;19.00;99.90;;;;;;5077414;28;20102;-59
2022/08/02 02:43:57;;;;;;;5.45;2.38;;;18.90;99.90;;;;;;5076855;28;20037;-59
2022/08/02 02:46:25;;;;;;;4.53;2.40;;;18.90;99.90;;;;;;5076913;28;20029;-60
2022/08/02 02:48:51;;;;;;;4.35;2.35;;;18.90;99.90;;;;;;5076799;28;20029;-60
2022/08/02 02:51:21;;;;;;;6.18;2.40;;;18.80;99.90;;;;;;5076879;28;20281;-59
2022/08/02 02:53:49;;;;;;;6.88;2.40;;;18.90;99.90;;;;;;5077205;28;20032;-60
2022/08/02 02:56:16;;;;;;;6.32;2.17;;;18.90;99.90;;;;;;5076558;28;20068;-59
2022/08/02 02:58:43;;;;;;;3.70;2.30;;;18.90;99.90;;;;;;5075831;28;20053;-60
2022/08/02 03:01:29;;;;;;;5.28;2.50;;;18.80;99.90;;;;;;5076701;28;20032;-60
2022/08/02 03:04:05;;;;;;;3.72;2.45;;;18.80;99.90;;;;;;5076804;28;20052;-60
2022/08/02 03:06:31;;;;;;;3.85;2.15;;;18.80;99.90;;;;;;5076700;28;20047;-60
2022/08/02 03:08:58;;;;;;;4.75;2.40;;;18.80;99.90;;;;;;5076601;28;20024;-60
2022/08/02 03:11:28;;;;;;;8.00;2.72;;;18.80;99.90;;;;;;5076664;28;20077;-59
2022/08/02 03:13:59;;;;;;;4.75;2.20;;;18.80;99.90;;;;;;5077035;28;20032;-59
2022/08/02 03:16:27;;;;;;;4.60;2.47;;;18.70;99.90;;;;;;5076638;28;20085;-59
2022/08/02 03:18:55;;;;;;;3.80;2.70;;;18.70;99.90;;;;;;5076549;28;20029;-59
2022/08/02 03:21:21;;;;;;;4.80;2.50;;;18.60;99.90;;;;;;5075815;28;20301;-60
2022/08/02 03:23:48;;;;;;;6.75;2.42;;;18.60;99.90;;;;;;5076470;28;20070;-60
2022/08/02 03:26:14;;;;;;;3.95;2.33;;;18.60;99.90;;;;;;5076768;28;20336;-60
2022/08/02 03:28:40;;;;;;;4.63;2.53;;;18.60;99.90;;;;;;5075714;28;20028;-60
2022/08/02 03:31:06;;;;;;;4.13;2.90;;;18.60;99.90;;;;;;5076476;28;20089;-60
2022/08/02 03:33:32;;;;;;;8.95;2.72;;;18.50;99.90;;;;;;5059012;28;20058;-60
2022/08/02 03:36:02;;;;;;;9.90;2.85;;;18.60;99.90;;;;;;5076397;28;20423;-60
2022/08/02 03:38:31;;;;;;;5.35;3.13;;;18.60;99.90;;;;;;5075579;28;20124;-60
2022/08/02 03:41:00;;;;;;;6.53;3.10;;;18.60;99.90;;;;;;5076329;28;20029;-60
2022/08/02 03:43:27;;;;;;;5.38;3.03;;;18.40;99.90;;;;;;5077551;28;20059;-60
2022/08/02 03:45:54;;;;;;;4.60;2.95;;;18.50;99.90;;;;;;5080052;28;20032;-60
2022/08/02 03:48:20;;;;;;;4.68;2.45;;;18.60;99.90;;;;;;5080009;28;20285;-60
2022/08/02 03:50:47;;;;;;;6.07;3.20;;;18.50;99.90;;;;;;5079944;28;20064;-60
2022/08/02 03:53:15;;;;;;;7.40;3.42;;;18.60;99.90;;;;;;5079829;28;20024;-60
2022/08/02 03:55:41;;;;;;;4.97;3.00;;;18.40;99.90;;;;;;5062696;28;20109;-60
2022/08/02 03:58:08;;;;;;;5.20;3.53;;;18.20;99.90;;;;;;5079753;28;20135;-62
2022/08/02 04:00:34;;;;;;;5.47;3.63;;;18.10;99.90;;;;;;5080194;28;20111;-60
2022/08/02 04:03:00;;;;;;;5.53;3.35;;;18.00;99.90;;;;;;5079630;28;20078;-59
2022/08/02 04:05:25;;;;;;;8.68;3.83;;;18.00;99.90;;;;;;5079682;28;20024;-60
2022/08/02 04:07:51;;;;;;;5.43;3.72;;;18.00;99.90;;;;;;5079545;28;20075;-59
2022/08/02 04:10:17;;;;;;;4.95;3.50;;;17.90;99.90;;;;;;5079466;28;20044;-59
2022/08/02 04:12:43;;;;;;;7.07;3.47;;;17.90;99.90;;;;;;5078722;28;20040;-59
2022/08/02 04:15:13;;;;;;;6.43;3.42;;;17.80;99.90;;;;;;5079463;28;20028;-59
2022/08/02 04:17:55;;;;;;;5.30;3.17;;;17.80;99.90;;;;;;5078668;28;20123;-58
2022/08/02 04:20:27;;;;;;;7.37;3.70;;;17.90;99.90;;;;;;5079448;28;20114;-59
2022/08/02 04:23:13;;;;;;;7.05;3.80;;;17.90;99.90;;;;;;5079447;28;20024;-58
2022/08/02 04:25:40;;;;;;;5.95;3.50;;;17.80;99.90;;;;;;5079416;28;20107;-61
2022/08/02 04:28:06;;;;;;;6.95;4.30;;;17.70;99.90;;;;;;5079230;28;20023;-59
2022/08/02 04:30:33;;;;;;;6.55;3.88;;;17.70;99.90;;;;;;5078449;28;20068;-58
2022/08/02 04:32:59;;;;;;;8.60;4.25;;;17.80;99.90;;;;;;5079164;28;20037;-59
2022/08/02 04:35:26;;;;;;;5.85;4.10;;;17.70;99.90;;;;;;5079695;28;20043;-59
2022/08/02 04:37:52;;;;;;;5.95;3.75;;;17.80;99.90;;;;;;5079562;28;20082;-58
2022/08/02 04:40:18;;;;;;;6.68;4.13;;;17.90;99.90;;;;;;5078772;28;20246;-58
2022/08/02 04:42:44;;;;;;;4.80;4.25;;;18.00;99.90;;;;;;5078935;28;20095;-58
2022/08/02 04:45:10;;;;;;;6.65;4.30;;;18.10;99.90;;;;;;5078908;28;20092;-58
2022/08/02 04:47:36;;;;;;;4.95;4.45;;;18.20;99.90;;;;;;5078917;28;20028;-59
2022/08/02 04:50:03;;;;;;;7.45;4.55;;;18.20;99.90;;;;;;5078883;28;20032;-58
2022/08/02 04:52:28;;;;;;;8.38;5.13;;;18.20;99.90;;;;;;5078813;28;20031;-58
2022/08/02 04:54:54;;;;;;;7.75;4.90;;;18.30;99.90;;;;;;5078724;28;20115;-58
2022/08/02 05:00:07;;;;;;;8.43;5.63;;;18.40;99.90;;;;;;5078406;28;20024;-59
2022/08/02 05:02:33;;;;;;;8.73;5.72;;;18.40;99.90;;;;;;5078548;28;20033;-59
2022/08/02 05:04:59;;;;;;;7.40;5.35;;;18.30;99.90;;;;;;5078530;28;20028;-58
2022/08/02 05:07:25;;;;;;;7.20;5.57;;;18.20;99.90;;;;;;5078410;28;20032;-59
2022/08/02 05:09:50;;;;;;;8.85;5.63;;;18.10;99.90;;;;;;5078426;28;20029;-58
2022/08/02 05:12:16;;;;;;;11.10;6.00;;;18.10;99.90;;;;;;5078439;28;20020;-59
2022/08/02 05:14:42;;;;;;;7.97;6.28;;;18.20;99.90;;;;;;5078289;28;20044;-58
2022/08/02 05:17:08;;;;;;;8.50;6.15;;;18.20;99.90;;;;;;5078622;28;20324;-59
2022/08/02 05:19:33;;;;;;;8.00;6.15;;;18.30;99.90;;;;;;5078261;28;20285;-59
2022/08/02 05:21:59;;;;;;;9.25;5.75;;;18.40;99.90;;;;;;5078353;28;20032;-59
2022/08/02 05:24:25;;;;;;;7.47;5.97;;;18.40;99.90;;;;;;5078296;28;20041;-59
2022/08/02 05:26:51;;;;;;;7.63;6.07;;;18.30;99.90;;;;;;5078127;28;20127;-59
2022/08/02 05:29:16;;;;;;;8.68;6.32;;;18.20;99.90;;;;;;5078257;28;20447;-59
2022/08/02 05:31:44;;;;;;;7.85;6.18;;;18.30;99.90;;;;;;5077950;28;20032;-58
2022/08/02 05:34:10;;;;;;;8.38;6.07;;;18.30;99.90;;;;;;5077904;28;20288;-59
2022/08/02 05:36:36;;;;;;;9.68;6.90;;;18.30;99.90;;;;;;5077278;28;20037;-59
2022/08/02 05:39:02;;;;;;;10.77;7.05;;;18.30;99.90;;;;;;5077841;28;20486;-59
2022/08/02 05:41:27;;;;;;;10.32;6.90;;;18.40;99.90;;;;;;5076985;28;20036;-59
2022/08/02 05:43:53;;;;;;;12.27;7.07;;;18.50;99.90;;;;;;5077760;28;20028;-59
2022/08/02 05:46:19;;;;;;;9.40;6.63;;;18.70;99.90;;;;;;5077744;28;20028;-59
2022/08/02 05:48:45;;;;;;;12.77;7.50;;;18.80;99.90;;;;;;5077595;28;20044;-59
2022/08/02 05:51:18;;;;;;;10.20;7.22;;;18.70;99.90;;;;;;5076939;28;20400;-66
2022/08/02 05:53:59;;;;;;;13.07;6.65;;;18.70;99.90;;;;;;5077572;28;20043;-59
2022/08/02 05:56:33;;;;;;;9.20;6.43;;;18.70;99.90;;;;;;5077401;28;20032;-60
2022/08/02 05:59:12;;;;;;;7.57;6.00;;;18.70;99.90;;;;;;5077796;28;20040;-59
2022/08/02 06:01:41;;;;;;;7.25;6.03;;;18.80;99.90;;;;;;5077469;28;20032;-60
2022/08/02 06:04:09;;;;;;;9.02;6.75;;;18.80;99.90;;;;;;5076923;28;20032;-60
2022/08/02 06:06:36;;;;;;;9.50;6.93;;;19.00;99.90;;;;;;5077479;28;20043;-59
2022/08/02 06:09:14;;;;;;;9.48;6.18;;;19.20;99.90;;;;;;5077189;28;20044;-59
2022/08/02 06:11:45;;;;;;;6.53;5.82;;;19.40;99.90;;;;;;5077906;28;20032;-61
2022/08/02 06:14:12;;;;;;;8.20;6.50;;;19.40;99.90;;;;;;5077550;28;20055;-60
2022/08/02 06:16:38;;;;;;;8.98;6.68;;;19.40;99.90;;;;;;5077411;28;20039;-61
2022/08/02 06:19:05;;;;;;;8.88;6.43;;;19.10;99.90;;;;;;5076487;28;20344;-60
2022/08/02 06:21:31;;;;;;;7.90;6.57;;;19.20;99.90;;;;;;5076338;28;20048;-61
2022/08/02 06:23:58;;;;;;;10.48;6.22;;;19.40;99.90;;;;;;5077146;28;20060;-60
2022/08/02 06:26:25;;;;;;;9.65;6.60;;;19.40;99.90;;;;;;5076445;28;20035;-59
2022/08/02 06:28:56;;;;;;;10.23;6.45;;;19.30;99.90;;;;;;5077036;28;20082;-59
2022/08/02 06:31:22;;;;;;;8.40;6.40;;;19.20;99.90;;;;;;5077635;28;20088;-59
2022/08/02 06:33:48;;;;;;;10.00;6.00;;;19.30;99.90;;;;;;5076663;28;20060;-59
2022/08/02 06:36:37;;;;;;;7.25;5.95;;;19.30;99.90;;;;;;5076386;28;20058;-60
2022/08/02 06:39:13;;;;;;;8.48;6.15;;;19.50;99.90;;;;;;5076214;28;20033;-59
2022/08/02 06:41:41;;;;;;;11.40;5.93;;;19.60;99.90;;;;;;5077145;28;20352;-58
2022/08/02 06:44:13;;;;;;;8.40;5.82;;;19.60;99.90;;;;;;5076122;28;20296;-59
2022/08/02 06:46:39;;;;;;;6.68;5.68;;;19.60;99.90;;;;;;5076927;28;20115;-58
2022/08/02 06:49:05;;;;;;;6.15;5.05;;;19.80;99.90;;;;;;5077048;28;20031;-59
2022/08/02 06:51:31;;;;;;;7.35;5.82;;;20.00;99.90;;;;;;5076147;28;20033;-59
2022/08/02 06:53:57;;;;;;;5.95;4.88;;;20.10;99.90;;;;;;5076761;28;20047;-59
2022/08/02 06:56:23;;;;;;;7.97;4.70;;;20.00;99.90;;;;;;5076628;28;20300;-59
2022/08/02 06:58:49;;;;;;;6.43;4.63;;;20.00;99.90;;;;;;5076734;28;20036;-59
2022/08/02 07:01:14;;;;;;;7.60;4.25;;;20.10;99.90;;;;;;5076671;28;20033;-59
2022/08/02 07:03:40;;;;;;;4.05;3.65;;;20.20;99.90;;;;;;5076259;28;20118;-59
2022/08/02 07:06:10;;;;;;;3.83;3.38;;;20.20;99.90;;;;;;5076800;28;20044;-60
2022/08/02 07:08:37;;;;;;;5.40;3.90;;;20.20;99.90;;;;;;5076550;28;20411;-59
2022/08/02 07:11:09;;;;;;;5.00;3.35;;;20.10;99.90;;;;;;5076624;28;20037;-59
2022/08/02 07:13:36;;;;;;;5.38;2.90;;;20.00;99.90;;;;;;5076668;28;20040;-59
2022/08/02 07:16:02;;;;;;;6.88;3.40;;;19.90;99.90;;;;;;5075954;28;20035;-59
2022/08/02 07:18:28;;;;;;;3.90;2.95;;;19.80;99.90;;;;;;5079212;28;20038;-59
2022/08/02 07:20:54;;;;;;;7.72;3.00;;;19.80;99.90;;;;;;5080489;28;20040;-59
2022/08/02 07:23:20;;;;;;;4.10;3.15;;;19.90;99.90;;;;;;5080764;28;20056;-60
2022/08/02 07:25:47;;;;;;;5.88;3.10;;;20.10;99.90;;;;;;5080470;28;20026;-59
2022/08/02 07:28:14;;;;;;;6.00;3.13;;;20.40;99.90;;;;;;5080337;28;20036;-59
2022/08/02 07:30:41;;;;;;;3.92;2.45;;;20.50;99.90;;;;;;5080296;28;20037;-60
2022/08/02 07:33:07;;;;;;;4.13;2.45;;;20.40;99.90;;;;;;5080353;28;20063;-59
2022/08/02 07:35:33;;;;;;;2.70;2.03;;;20.30;99.90;;;;;;5080098;28;20029;-59
2022/08/02 07:37:59;;;;;;;3.53;2.50;;;20.40;99.90;;;;;;5080207;28;20123;-59
2022/08/02 07:40:26;;;;;;;2.50;2.10;;;20.70;99.90;;;;;;5080250;28;20278;-60
2022/08/02 07:42:54;;;;;;;3.83;2.35;;;20.70;99.90;;;;;;5080616;28;20025;-60
2022/08/02 07:45:21;;;;;;;3.13;2.20;;;20.70;99.90;;;;;;5079923;28;20403;-59
2022/08/02 07:47:47;;;;;;;6.05;1.85;;;20.70;99.90;;;;;;5079339;28;20029;-58
2022/08/02 07:50:16;;;;;;;3.33;2.10;;;20.70;99.90;;;;;;5079910;28;20031;-59
2022/08/02 07:52:43;;;;;;;4.00;2.10;;;20.60;99.90;;;;;;5079130;28;20020;-59
2022/08/02 07:55:10;;;;;;;3.22;1.65;;;20.60;99.90;;;;;;5079731;28;20039;-60
2022/08/02 07:57:37;;;;;;;3.00;1.40;;;20.80;99.90;;;;;;5079631;28;20114;-59
2022/08/02 08:00:08;;;;;;;4.60;1.60;;;20.90;99.90;;;;;;5078913;28;20028;-59
2022/08/02 08:02:40;;;;;;;3.38;1.85;;;21.10;99.90;;;;;;5079807;28;20029;-59
2022/08/02 08:05:06;;;;;;;3.67;2.20;;;21.30;99.90;;;;;;5079679;28;20082;-60
2022/08/02 08:07:33;;;;;;;3.58;1.70;;;21.30;99.90;;;;;;5079666;28;20034;-59
2022/08/02 08:09:59;;;;;;;5.60;1.77;;;21.50;99.90;;;;;;5079866;28;20442;-60
2022/08/02 08:12:25;;;;;;;1.85;1.60;;;21.60;99.90;;;;;;5079449;28;20392;-61
2022/08/02 08:14:51;;;;;;;2.08;1.58;;;21.90;99.90;;;;;;5078648;28;20399;-59
2022/08/02 08:17:17;;;;;;;2.45;1.27;;;21.90;99.90;;;;;;5079509;28;20028;-60
2022/08/02 08:19:43;;;;;;;2.40;1.48;;;22.10;99.90;;;;;;5078745;28;20040;-59
2022/08/02 08:22:09;;;;;;;3.58;1.30;;;22.30;99.90;;;;;;5079330;28;20066;-58
2022/08/02 08:24:34;;;;;;;2.20;1.48;;;22.40;99.90;;;;;;5079489;28;20028;-60
2022/08/02 08:27:00;;;;;;;2.20;1.30;;;22.30;99.90;;;;;;5079338;28;20043;-58
2022/08/02 08:29:26;;;;;;;2.63;1.30;;;22.10;99.90;;;;;;5078037;28;20408;-59
2022/08/02 08:31:52;;;;;;;2.90;1.33;;;21.80;99.90;;;;;;5079206;28;20201;-58
2022/08/02 08:34:18;;;;;;;3.35;1.20;;;21.90;99.90;;;;;;5079255;28;20089;-58
2022/08/02 08:36:43;;;;;;;2.58;1.45;;;22.00;99.90;;;;;;5079564;28;20377;-59
2022/08/02 08:39:09;;;;;;;1.83;1.15;;;21.90;99.90;;;;;;5079004;28;20028;-59
2022/08/02 08:41:36;;;;;;;2.00;1.15;;;22.00;99.90;;;;;;5078880;28;20131;-59
2022/08/02 08:44:02;;;;;;;3.63;1.35;;;22.10;99.90;;;;;;5078790;28;20020;-58
2022/08/02 08:46:31;;;;;;;3.22;1.30;;;22.10;99.90;;;;;;5078963;28;20572;-59
2022/08/02 08:49:04;;;;;;;2.13;1.40;;;22.10;99.90;;;;;;5078035;28;20056;-60
2022/08/02 08:51:34;;;;;;;2.25;1.25;;;22.30;99.90;;;;;;5078025;28;20090;-60
2022/08/02 08:54:02;;;;;;;2.60;1.02;;;22.60;99.90;;;;;;5077951;28;20408;-60
2022/08/02 08:56:33;;;;;;;5.28;1.00;;;23.10;99.90;;;;;;5078471;28;20036;-60
2022/08/02 08:59:00;;;;;;;4.95;1.10;;;23.10;99.90;;;;;;5078517;28;20071;-60
2022/08/02 09:01:26;;;;;;;3.80;1.33;;;23.10;99.90;;;;;;5078478;28;20166;-60
2022/08/02 09:03:52;;;;;;;3.45;1.13;;;22.80;99.90;;;;;;5078862;28;20028;-60
2022/08/02 09:06:18;;;;;;;1.73;1.02;;;22.90;99.90;;;;;;5078262;28;20024;-60
2022/08/02 09:08:43;;;;;;;2.03;1.08;;;22.90;99.90;;;;;;5078794;28;20028;-60
2022/08/02 09:11:19;;;;;;;2.63;1.00;;;22.80;99.90;;;;;;5078393;28;20036;-60
2022/08/02 09:13:57;;;;;;;4.03;1.30;;;22.90;99.90;;;;;;5077557;28;20032;-59
2022/08/02 09:16:36;;;;;;;3.67;1.13;;;22.90;99.90;;;;;;5078725;28;20388;-61
2022/08/02 09:19:22;;;;;;;2.53;1.00;;;23.00;99.90;;;;;;5078467;28;20021;-60
2022/08/02 09:21:50;;;;;;;1.77;1.17;;;23.30;99.90;;;;;;5077269;28;20396;-61
2022/08/02 09:24:18;;;;;;;1.67;1.10;;;23.30;99.90;;;;;;5077982;28;20017;-61
2022/08/02 09:26:45;;;;;;;3.25;1.00;;;23.40;99.90;;;;;;5078025;28;20081;-61
2022/08/02 09:29:12;;;;;;;1.50;0.90;;;23.50;99.90;;;;;;5077192;28;20336;-60
2022/08/02 09:31:38;;;;;;;2.65;0.95;;;23.50;99.90;;;;;;5078015;28;20033;-59
2022/08/02 09:34:03;;;;;;;3.30;0.85;;;23.60;99.90;;;;;;5077825;28;20032;-60
2022/08/02 09:36:41;;;;;;;3.40;1.08;;;24.00;99.90;;;;;;5077781;28;20273;-60
2022/08/02 09:39:10;;;;;;;2.20;1.00;;;24.20;99.90;;;;;;5077664;28;20293;-59
2022/08/02 09:41:41;;;;;;;3.65;0.93;;;24.50;99.90;;;;;;5076861;28;20043;-58
2022/08/02 09:44:16;;;;;;;1.75;0.75;;;24.30;99.90;;;;;;5077615;28;20025;-58
2022/08/02 09:46:43;;;;;;;3.05;0.80;;;24.30;99.90;;;;;;5078134;28;20116;-58
2022/08/02 09:49:18;;;;;;;2.35;0.95;;;24.60;99.90;;;;;;5077849;28;20085;-59
2022/08/02 09:51:45;;;;;;;6.43;1.10;;;24.70;99.90;;;;;;5077428;28;20146;-60
2022/08/02 09:54:19;;;;;;;1.95;0.80;;;24.60;99.90;;;;;;5077293;28;20032;-58
2022/08/02 09:56:50;;;;;;;1.45;0.80;;;24.80;99.90;;;;;;5077263;28;20044;-59
2022/08/02 09:59:18;;;;;;;2.03;0.75;;;24.40;99.90;;;;;;5077471;28;20060;-60
2022/08/02 10:01:46;;;;;;;1.85;0.80;;;24.30;99.90;;;;;;5077397;28;20124;-57
2022/08/02 10:04:13;;;;;;;1.55;0.85;;;24.30;99.90;;;;;;5076976;28;20036;-58
2022/08/02 10:06:41;;;;;;;1.73;0.77;;;24.10;99.90;;;;;;5077272;28;20094;-59
2022/08/02 10:09:08;;;;;;;2.42;0.80;;;24.20;99.90;;;;;;5077769;28;20273;-59
2022/08/02 10:11:34;;;;;;;2.30;0.77;;;24.50;99.90;;;;;;5076385;28;20033;-60
2022/08/02 10:14:03;;;;;;;1.20;0.70;;;24.50;99.90;;;;;;5077192;28;20037;-59
2022/08/02 10:16:32;;;;;;;2.63;0.80;;;24.80;99.90;;;;;;5077143;28;20041;-59
2022/08/02 10:18:59;;;;;;;2.25;0.90;;;25.30;99.90;;;;;;5077415;28;20418;-60
2022/08/02 10:21:49;;;;;;;2.55;1.10;;;25.70;99.90;;;;;;5076363;28;20032;-60
2022/08/02 10:24:17;;;;;;;2.83;0.80;;;25.50;99.90;;;;;;5077610;28;20024;-58
2022/08/02 10:26:45;;;;;;;1.20;0.90;;;25.80;99.90;;;;;;5077098;28;20036;-60
2022/08/02 10:29:15;;;;;;;1.27;0.90;;;25.40;99.90;;;;;;5077306;28;20024;-58
2022/08/02 10:31:43;;;;;;;2.15;0.80;;;25.30;99.90;;;;;;5077527;28;20449;-59
2022/08/02 10:34:13;;;;;;;2.25;1.00;;;25.80;99.90;;;;;;5076920;28;20104;-59
2022/08/02 10:36:41;;;;;;;2.50;0.90;;;26.00;99.90;;;;;;5077437;28;20101;-59
2022/08/02 10:39:07;;;;;;;3.03;1.00;;;26.20;99.90;;;;;;5076885;28;20029;-60
2022/08/02 10:41:40;;;;;;;2.25;0.80;;;26.20;99.90;;;;;;5076842;28;20090;-61
2022/08/02 10:44:07;;;;;;;1.85;0.80;;;25.90;99.90;;;;;;5076875;28;20112;-59
2022/08/02 10:46:36;;;;;;;1.13;0.70;;;25.40;99.90;;;;;;5076817;28;20296;-60
2022/08/02 10:49:08;;;;;;;1.85;0.80;;;25.30;99.90;;;;;;5076988;28;20062;-60
2022/08/02 10:51:58;;;;;;;1.10;1.00;;;25.50;99.90;;;;;;5076751;28;20079;-61
2022/08/02 10:54:26;;;;;;;2.15;1.10;;;25.80;99.90;;;;;;5076788;28;20021;-60
2022/08/02 10:56:53;;;;;;;3.20;0.90;;;26.20;99.90;;;;;;5076656;28;20304;-60
2022/08/02 10:59:27;;;;;;;4.15;1.00;;;26.20;99.90;;;;;;5076607;28;20036;-59
2022/08/02 11:02:01;;;;;;;1.05;0.80;;;25.90;99.90;;;;;;5076913;28;20035;-59
2022/08/02 11:04:47;;;;;;;5.07;0.80;;;26.30;99.90;;;;;;5076837;28;20036;-59
2022/08/02 11:07:18;;;;;;;5.32;0.90;;;26.70;99.90;;;;;;5075756;28;20044;-60
2022/08/02 11:09:45;;;;;;;2.60;1.00;;;27.40;99.90;;;;;;5076471;28;20024;-60
2022/08/02 11:12:17;;;;;;;1.92;0.80;;;27.90;99.90;;;;;;5076442;28;20032;-59
2022/08/02 11:15:04;;;;;;;2.30;0.80;;;27.80;99.90;;;;;;5075846;28;20043;-60
2022/08/02 11:17:52;;;;;;;2.13;0.95;;;27.90;99.90;;;;;;5076413;28;20071;-59
2022/08/02 11:20:20;;;;;;;2.95;0.93;;;28.50;99.90;;;;;;5076329;28;20115;-60
2022/08/02 11:22:47;;;;;;;1.90;0.90;;;27.50;99.90;;;;;;5077332;28;20116;-60
2022/08/02 11:25:25;;;;;;;2.28;1.00;;;26.90;99.90;;;;;;5076316;28;20060;-61
2022/08/02 11:27:52;;;;;;;1.58;0.80;;;27.00;99.90;;;;;;5076646;28;20025;-60
2022/08/02 11:30:19;;;;;;;3.85;0.90;;;27.10;99.90;;;;;;5076390;28;20086;-61
2022/08/02 11:32:45;;;;;;;5.90;1.10;;;27.90;99.90;;;;;;5076912;28;20028;-60
2022/08/02 11:35:11;;;;;;;1.30;0.80;;;29.00;99.90;;;;;;5076871;28;20326;-60
2022/08/02 11:37:39;;;;;;;2.05;0.90;;;30.40;99.90;;;;;;5076892;28;20178;-58
2022/08/02 11:40:08;;;;;;;8.57;1.10;;;30.50;99.90;;;;;;5076230;28;20033;-59
2022/08/02 11:42:36;;;;;;;2.90;1.00;;;29.50;99.90;;;;;;5076585;28;20119;-59
2022/08/02 11:45:04;;;;;;;4.35;0.98;;;28.40;99.90;;;;;;5076317;28;20021;-60
2022/08/02 11:47:30;;;;;;;6.70;1.08;;;28.40;99.90;;;;;;5076314;28;20020;-60
2022/08/02 11:50:09;;;;;;;2.50;0.90;;;28.70;99.90;;;;;;5076112;28;20119;-59
2022/08/02 11:52:36;;;;;;;2.30;0.90;;;30.10;99.90;;;;;;5076650;28;20333;-59
2022/08/02 11:55:03;;;;;;;2.65;0.80;;;29.30;99.90;;;;;;5076249;28;20347;-59
2022/08/02 11:57:29;;;;;;;1.80;1.10;;;28.70;99.90;;;;;;5076199;28;20090;-59
2022/08/02 11:59:56;;;;;;;2.00;0.93;;;29.70;99.90;;;;;;5076286;28;20054;-61
2022/08/02 12:02:25;;;;;;;3.40;0.80;;;29.90;99.90;;;;;;5076100;28;20335;-60
2022/08/02 12:05:06;;;;;;;3.60;0.70;;;30.30;99.90;;;;;;5078628;28;20085;-60
2022/08/02 12:07:37;;;;;;;1.77;0.80;;;32.30;99.90;;;;;;5080275;28;20028;-60
2022/08/02 12:10:06;;;;;;;3.70;0.98;;;32.20;99.90;;;;;;5079647;28;20024;-59
2022/08/02 12:12:32;;;;;;;1.65;0.70;;;31.10;99.90;;;;;;5079623;28;20033;-59
2022/08/02 12:15:00;;;;;;;2.20;0.70;;;31.90;99.90;;;;;;5079500;28;20024;-60
2022/08/02 12:20:12;;;;;;;2.20;0.80;;;33.60;97.30;;;;;;5079298;28;20101;-60
2022/08/02 12:22:39;;;;;;;3.33;0.80;;;34.10;94.80;;;;;;5079458;28;20117;-60
2022/08/02 12:25:25;;;;;;;2.22;0.82;;;33.40;94.80;;;;;;5079410;28;20075;-60
2022/08/02 12:27:51;;;;;;;1.98;0.60;;;32.20;95.50;;;;;;5079271;28;20056;-60
2022/08/02 12:30:18;;;;;;;3.13;0.70;;;31.70;97.10;;;;;;5079197;28;20343;-61
2022/08/02 12:32:45;;;;;;;2.08;0.68;;;30.50;98.40;;;;;;5078440;28;20086;-60
2022/08/02 12:35:13;;;;;;;3.85;0.88;;;31.60;97.90;;;;;;5079146;28;20088;-59
2022/08/02 12:37:45;;;;;;;2.30;0.70;;;33.00;95.80;;;;;;5078738;28;20514;-59
2022/08/02 12:40:18;;;;;;;2.28;0.63;;;34.00;93.00;;;;;;5078944;28;20135;-61
2022/08/02 12:42:58;;;;;;;1.40;0.60;;;32.80;93.10;;;;;;5078864;28;20104;-64
2022/08/02 12:45:26;;;;;;;1.67;0.60;;;33.10;93.00;;;;;;5078897;28;20032;-59
2022/08/02 12:47:55;;;;;;;2.60;0.70;;;34.20;92.00;;;;;;5078964;28;20036;-60
2022/08/02 12:50:23;;;;;;;2.15;0.75;;;35.00;90.90;;;;;;5078823;28;20099;-59
2022/08/02 12:53:01;;;;;;;2.75;0.85;;;36.60;86.90;;;;;;5078901;28;20037;-60
2022/08/02 12:55:26;;;;;;;5.32;0.70;;;36.00;85.10;;;;;;5079032;28;20414;-60
2022/08/02 12:58:00;;;;;;;3.03;0.63;;;37.40;81.40;;;;;;5077848;28;20135;-59
2022/08/02 13:00:32;;;;;;;1.00;0.70;;;37.40;77.40;;;;;;5077771;28;20054;-60
2022/08/02 13:02:58;;;;;;;1.05;0.45;;;37.10;77.40;;;;;;5078605;28;20415;-59